sensor_id;sensor_type;location;lat;lon;timestamp;pressure;altitude;pressure_sealevel;temperature;humidity
72359;BME280;60317;48.880;-0.862;2023-04-23T00:00:58;99335.47;;;19.71;43.45
72359;BME280;60317;48.880;-0.862;2023-04-23T00:03:26;99337.38;;;19.61;43.71
72359;BME280;60317;48.880;-0.862;2023-04-23T00:05:55;99339.78;;;19.64;43.77
72359;BME280;60317;48.880;-0.862;2023-04-23T00:08:22;99341.16;;;19.68;44.00
72359;BME280;60317;48.880;-0.862;2023-04-23T00:10:49;99344.66;;;19.68;43.53
72359;BME280;60317;48.880;-0.862;2023-04-23T00:13:16;99332.28;;;19.67;43.61
72359;BME280;60317;48.880;-0.862;2023-04-23T00:15:43;99328.44;;;19.70;43.50
72359;BME280;60317;48.880;-0.862;2023-04-23T00:18:10;99329.28;;;19.70;43.52
72359;BME280;60317;48.880;-0.862;2023-04-23T00:20:38;99329.09;;;19.72;43.54
72359;BME280;60317;48.880;-0.862;2023-04-23T00:23:04;99328.13;;;19.73;43.53
72359;BME280;60317;48.880;-0.862;2023-04-23T00:25:31;99325.28;;;19.74;43.45
72359;BME280;60317;48.880;-0.862;2023-04-23T00:27:57;99318.88;;;19.67;43.69
72359;BME280;60317;48.880;-0.862;2023-04-23T00:30:24;99314.25;;;19.60;44.13
72359;BME280;60317;48.880;-0.862;2023-04-23T00:32:50;99304.09;;;19.63;43.70
72359;BME280;60317;48.880;-0.862;2023-04-23T00:35:17;99301.94;;;19.67;43.36
72359;BME280;60317;48.880;-0.862;2023-04-23T00:37:45;99298.25;;;19.68;43.50
72359;BME280;60317;48.880;-0.862;2023-04-23T00:40:12;99297.25;;;19.69;43.55
72359;BME280;60317;48.880;-0.862;2023-04-23T00:42:39;99295.44;;;19.69;43.54
72359;BME280;60317;48.880;-0.862;2023-04-23T00:45:06;99297.13;;;19.70;43.55
72359;BME280;60317;48.880;-0.862;2023-04-23T00:47:34;99293.41;;;19.71;43.59
72359;BME280;60317;48.880;-0.862;2023-04-23T00:50:01;99292.59;;;19.71;43.62
72359;BME280;60317;48.880;-0.862;2023-04-23T00:52:27;99289.75;;;19.72;43.50
72359;BME280;60317;48.880;-0.862;2023-04-23T00:54:55;99283.53;;;19.72;43.51
72359;BME280;60317;48.880;-0.862;2023-04-23T00:57:22;99277.13;;;19.65;43.63
72359;BME280;60317;48.880;-0.862;2023-04-23T00:59:49;99282.94;;;19.60;43.75
72359;BME280;60317;48.880;-0.862;2023-04-23T01:02:16;99272.03;;;19.62;43.69
72359;BME280;60317;48.880;-0.862;2023-04-23T01:04:43;99274.13;;;19.68;43.60
72359;BME280;60317;48.880;-0.862;2023-04-23T01:07:10;99287.72;;;19.66;43.64
72359;BME280;60317;48.880;-0.862;2023-04-23T01:09:38;99280.34;;;19.68;43.64
72359;BME280;60317;48.880;-0.862;2023-04-23T01:12:08;99274.13;;;19.68;43.73
72359;BME280;60317;48.880;-0.862;2023-04-23T01:14:36;99276.50;;;19.71;43.80
72359;BME280;60317;48.880;-0.862;2023-04-23T01:17:02;99266.78;;;19.70;43.65
72359;BME280;60317;48.880;-0.862;2023-04-23T01:19:29;99271.97;;;19.71;43.60
72359;BME280;60317;48.880;-0.862;2023-04-23T01:21:56;99269.28;;;19.71;43.59
72359;BME280;60317;48.880;-0.862;2023-04-23T01:24:24;99260.94;;;19.74;43.69
72359;BME280;60317;48.880;-0.862;2023-04-23T01:26:50;99262.06;;;19.64;43.97
72359;BME280;60317;48.880;-0.862;2023-04-23T01:29:17;99254.28;;;19.61;44.04
72359;BME280;60317;48.880;-0.862;2023-04-23T01:31:43;99252.16;;;19.64;43.64
72359;BME280;60317;48.880;-0.862;2023-04-23T01:34:10;99249.16;;;19.67;43.75
72359;BME280;60317;48.880;-0.862;2023-04-23T01:36:37;99246.50;;;19.67;43.76
72359;BME280;60317;48.880;-0.862;2023-04-23T01:39:04;99249.00;;;19.69;43.76
72359;BME280;60317;48.880;-0.862;2023-04-23T01:41:32;99245.34;;;19.70;43.73
72359;BME280;60317;48.880;-0.862;2023-04-23T01:44:00;99238.13;;;19.70;43.67
72359;BME280;60317;48.880;-0.862;2023-04-23T01:46:27;99237.31;;;19.70;43.79
72359;BME280;60317;48.880;-0.862;2023-04-23T01:48:53;99240.81;;;19.70;43.80
72359;BME280;60317;48.880;-0.862;2023-04-23T01:51:20;99224.72;;;19.70;43.82
72359;BME280;60317;48.880;-0.862;2023-04-23T01:53:46;99226.41;;;19.71;43.80
72359;BME280;60317;48.880;-0.862;2023-04-23T01:56:15;99228.31;;;19.61;43.98
72359;BME280;60317;48.880;-0.862;2023-04-23T01:58:43;99217.78;;;19.60;44.01
72359;BME280;60317;48.880;-0.862;2023-04-23T02:01:09;99213.94;;;19.62;44.07
72359;BME280;60317;48.880;-0.862;2023-04-23T02:03:36;99212.78;;;19.65;43.91
72359;BME280;60317;48.880;-0.862;2023-04-23T02:06:03;99212.66;;;19.66;44.01
72359;BME280;60317;48.880;-0.862;2023-04-23T02:08:30;99201.75;;;19.68;44.02
72359;BME280;60317;48.880;-0.862;2023-04-23T02:10:56;99198.06;;;19.69;43.89
72359;BME280;60317;48.880;-0.862;2023-04-23T02:13:23;99194.41;;;19.70;43.98
72359;BME280;60317;48.880;-0.862;2023-04-23T02:15:51;99202.44;;;19.70;43.79
72359;BME280;60317;48.880;-0.862;2023-04-23T02:18:17;99194.25;;;19.71;43.68
72359;BME280;60317;48.880;-0.862;2023-04-23T02:20:44;99188.72;;;19.73;43.99
72359;BME280;60317;48.880;-0.862;2023-04-23T02:23:10;99177.00;;;19.74;43.83
72359;BME280;60317;48.880;-0.862;2023-04-23T02:25:37;99176.28;;;19.64;44.08
72359;BME280;60317;48.880;-0.862;2023-04-23T02:28:03;99168.38;;;19.62;43.98
72359;BME280;60317;48.880;-0.862;2023-04-23T02:30:30;99171.06;;;19.62;44.16
72359;BME280;60317;48.880;-0.862;2023-04-23T02:32:58;99160.88;;;19.66;44.28
72359;BME280;60317;48.880;-0.862;2023-04-23T02:35:24;99161.41;;;19.69;43.96
72359;BME280;60317;48.880;-0.862;2023-04-23T02:37:52;99151.53;;;19.70;44.00
72359;BME280;60317;48.880;-0.862;2023-04-23T02:40:18;99147.13;;;19.69;44.01
72359;BME280;60317;48.880;-0.862;2023-04-23T02:42:45;99147.66;;;19.72;43.90
72359;BME280;60317;48.880;-0.862;2023-04-23T02:45:12;99141.47;;;19.72;43.98
72359;BME280;60317;48.880;-0.862;2023-04-23T02:47:38;99143.16;;;19.73;43.84
72359;BME280;60317;48.880;-0.862;2023-04-23T02:50:07;99141.31;;;19.73;43.96
72359;BME280;60317;48.880;-0.862;2023-04-23T02:52:33;99144.13;;;19.72;43.93
72359;BME280;60317;48.880;-0.862;2023-04-23T02:55:00;99139.53;;;19.56;44.29
72359;BME280;60317;48.880;-0.862;2023-04-23T02:57:26;99139.88;;;19.61;44.20
72359;BME280;60317;48.880;-0.862;2023-04-23T02:59:53;99125.19;;;19.65;44.05
72359;BME280;60317;48.880;-0.862;2023-04-23T03:02:19;99127.53;;;19.68;44.06
72359;BME280;60317;48.880;-0.862;2023-04-23T03:04:46;99120.34;;;19.69;44.00
72359;BME280;60317;48.880;-0.862;2023-04-23T03:07:14;99117.50;;;19.70;44.01
72359;BME280;60317;48.880;-0.862;2023-04-23T03:09:40;99110.31;;;19.71;44.07
72359;BME280;60317;48.880;-0.862;2023-04-23T03:12:07;99107.31;;;19.74;43.92
72359;BME280;60317;48.880;-0.862;2023-04-23T03:14:33;99105.47;;;19.74;43.87
72359;BME280;60317;48.880;-0.862;2023-04-23T03:17:00;99104.44;;;19.75;43.96
72359;BME280;60317;48.880;-0.862;2023-04-23T03:19:27;99093.06;;;19.73;43.99
72359;BME280;60317;48.880;-0.862;2023-04-23T03:21:53;99099.56;;;19.63;44.19
72359;BME280;60317;48.880;-0.862;2023-04-23T03:24:21;99098.53;;;19.64;44.24
72359;BME280;60317;48.880;-0.862;2023-04-23T03:26:48;99095.56;;;19.67;44.28
72359;BME280;60317;48.880;-0.862;2023-04-23T03:29:14;99081.00;;;19.69;44.19
72359;BME280;60317;48.880;-0.862;2023-04-23T03:31:41;99077.31;;;19.70;44.14
72359;BME280;60317;48.880;-0.862;2023-04-23T03:34:07;99086.88;;;19.73;44.24
72359;BME280;60317;48.880;-0.862;2023-04-23T03:36:34;99081.34;;;19.74;44.05
72359;BME280;60317;48.880;-0.862;2023-04-23T03:39:00;99095.56;;;19.75;44.08
72359;BME280;60317;48.880;-0.862;2023-04-23T03:41:28;99085.69;;;19.75;44.04
72359;BME280;60317;48.880;-0.862;2023-04-23T03:43:54;99094.56;;;19.76;44.12
72359;BME280;60317;48.880;-0.862;2023-04-23T03:46:21;99095.44;;;19.76;44.16
72359;BME280;60317;48.880;-0.862;2023-04-23T03:48:47;99096.22;;;19.69;44.29
72359;BME280;60317;48.880;-0.862;2023-04-23T03:51:14;99099.56;;;19.63;44.41
72359;BME280;60317;48.880;-0.862;2023-04-23T03:53:41;99100.91;;;19.67;44.42
72359;BME280;60317;48.880;-0.862;2023-04-23T03:56:07;99097.06;;;19.69;44.40
72359;BME280;60317;48.880;-0.862;2023-04-23T03:58:35;99090.84;;;19.69;44.22
72359;BME280;60317;48.880;-0.862;2023-04-23T04:01:01;99085.16;;;19.72;44.26
72359;BME280;60317;48.880;-0.862;2023-04-23T04:03:28;99081.81;;;19.70;44.27
72359;BME280;60317;48.880;-0.862;2023-04-23T04:05:55;99077.13;;;19.72;44.22
72359;BME280;60317;48.880;-0.862;2023-04-23T04:08:21;99065.44;;;19.73;44.30
72359;BME280;60317;48.880;-0.862;2023-04-23T04:10:48;99056.38;;;19.74;44.21
72359;BME280;60317;48.880;-0.862;2023-04-23T04:13:14;99059.72;;;19.76;44.21
72359;BME280;60317;48.880;-0.862;2023-04-23T04:15:42;99049.34;;;19.73;44.40
72359;BME280;60317;48.880;-0.862;2023-04-23T04:18:08;99049.75;;;19.60;44.65
72359;BME280;60317;48.880;-0.862;2023-04-23T04:20:35;99052.97;;;19.64;44.38
72359;BME280;60317;48.880;-0.862;2023-04-23T04:23:02;99049.16;;;19.66;44.56
72359;BME280;60317;48.880;-0.862;2023-04-23T04:25:28;99042.59;;;19.69;44.43
72359;BME280;60317;48.880;-0.862;2023-04-23T04:27:55;99034.41;;;19.70;44.18
72359;BME280;60317;48.880;-0.862;2023-04-23T04:30:22;99029.06;;;19.70;44.35
72359;BME280;60317;48.880;-0.862;2023-04-23T04:32:50;99023.50;;;19.72;44.22
72359;BME280;60317;48.880;-0.862;2023-04-23T04:35:17;99033.41;;;19.71;44.28
72359;BME280;60317;48.880;-0.862;2023-04-23T04:37:43;99022.53;;;19.73;44.40
72359;BME280;60317;48.880;-0.862;2023-04-23T04:40:10;99035.75;;;19.74;44.25
72359;BME280;60317;48.880;-0.862;2023-04-23T04:42:37;99033.78;;;19.76;44.24
72359;BME280;60317;48.880;-0.862;2023-04-23T04:45:04;99045.28;;;19.69;44.34
72359;BME280;60317;48.880;-0.862;2023-04-23T04:47:30;99036.19;;;19.62;44.57
72359;BME280;60317;48.880;-0.862;2023-04-23T04:49:58;99035.75;;;19.66;44.25
72359;BME280;60317;48.880;-0.862;2023-04-23T04:52:25;99031.03;;;19.68;44.41
72359;BME280;60317;48.880;-0.862;2023-04-23T04:54:51;99024.53;;;19.71;44.35
72359;BME280;60317;48.880;-0.862;2023-04-23T04:57:18;99019.16;;;19.71;44.43
72359;BME280;60317;48.880;-0.862;2023-04-23T04:59:44;99021.66;;;19.72;44.26
72359;BME280;60317;48.880;-0.862;2023-04-23T05:02:11;99025.22;;;19.73;44.38
72359;BME280;60317;48.880;-0.862;2023-04-23T05:04:37;99018.84;;;19.74;44.23
72359;BME280;60317;48.880;-0.862;2023-04-23T05:07:05;99009.63;;;19.76;44.30
72359;BME280;60317;48.880;-0.862;2023-04-23T05:09:32;99014.00;;;19.77;44.25
72359;BME280;60317;48.880;-0.862;2023-04-23T05:11:58;99015.00;;;19.76;44.38
72359;BME280;60317;48.880;-0.862;2023-04-23T05:14:25;99014.63;;;19.63;44.58
72359;BME280;60317;48.880;-0.862;2023-04-23T05:16:51;99017.31;;;19.63;44.47
72359;BME280;60317;48.880;-0.862;2023-04-23T05:19:18;99014.31;;;19.66;44.49
72359;BME280;60317;48.880;-0.862;2023-04-23T05:21:44;99012.13;;;19.70;44.56
72359;BME280;60317;48.880;-0.862;2023-04-23T05:24:12;99018.00;;;19.73;44.41
72359;BME280;60317;48.880;-0.862;2023-04-23T05:26:39;99011.81;;;19.73;44.43
72359;BME280;60317;48.880;-0.862;2023-04-23T05:29:05;99007.28;;;19.73;44.38
72359;BME280;60317;48.880;-0.862;2023-04-23T05:31:32;99008.13;;;19.74;44.59
72359;BME280;60317;48.880;-0.862;2023-04-23T05:33:58;98997.22;;;19.75;44.29
72359;BME280;60317;48.880;-0.862;2023-04-23T05:36:25;99002.44;;;19.77;44.35
72359;BME280;60317;48.880;-0.862;2023-04-23T05:38:51;98994.53;;;19.75;44.10
72359;BME280;60317;48.880;-0.862;2023-04-23T05:41:19;99004.88;;;19.62;44.83
72359;BME280;60317;48.880;-0.862;2023-04-23T05:43:46;98998.38;;;19.65;44.63
72359;BME280;60317;48.880;-0.862;2023-04-23T05:46:12;98999.06;;;19.67;44.53
72359;BME280;60317;48.880;-0.862;2023-04-23T05:48:39;98993.19;;;19.71;44.72
72359;BME280;60317;48.880;-0.862;2023-04-23T05:51:05;98994.03;;;19.72;44.40
72359;BME280;60317;48.880;-0.862;2023-04-23T05:53:32;98998.41;;;19.73;44.43
72359;BME280;60317;48.880;-0.862;2023-04-23T05:55:58;98992.88;;;19.74;44.39
72359;BME280;60317;48.880;-0.862;2023-04-23T05:58:26;98983.81;;;19.75;44.45
72359;BME280;60317;48.880;-0.862;2023-04-23T06:00:52;98981.00;;;19.77;44.44
72359;BME280;60317;48.880;-0.862;2023-04-23T06:03:19;98973.78;;;19.77;44.27
72359;BME280;60317;48.880;-0.862;2023-04-23T06:05:46;98965.75;;;19.77;44.43
72359;BME280;60317;48.880;-0.862;2023-04-23T06:08:12;98958.53;;;19.70;44.53
72359;BME280;60317;48.880;-0.862;2023-04-23T06:10:39;98965.38;;;19.64;44.76
72359;BME280;60317;48.880;-0.862;2023-04-23T06:13:06;98953.63;;;19.65;44.66
72359;BME280;60317;48.880;-0.862;2023-04-23T06:15:34;98946.97;;;19.69;44.57
72359;BME280;60317;48.880;-0.862;2023-04-23T06:18:00;98926.88;;;19.73;44.43
72359;BME280;60317;48.880;-0.862;2023-04-23T06:20:27;98912.44;;;19.74;44.36
72359;BME280;60317;48.880;-0.862;2023-04-23T06:22:54;98907.91;;;19.75;44.47
72359;BME280;60317;48.880;-0.862;2023-04-23T06:25:21;98895.34;;;19.75;44.31
72359;BME280;60317;48.880;-0.862;2023-04-23T06:27:47;98897.19;;;19.75;44.27
72359;BME280;60317;48.880;-0.862;2023-04-23T06:30:14;98889.84;;;19.77;44.55
72359;BME280;60317;48.880;-0.862;2023-04-23T06:32:42;98888.81;;;19.78;44.54
72359;BME280;60317;48.880;-0.862;2023-04-23T06:35:08;98878.94;;;19.70;44.54
72359;BME280;60317;48.880;-0.862;2023-04-23T06:37:35;98868.03;;;19.64;44.57
72359;BME280;60317;48.880;-0.862;2023-04-23T06:40:01;98865.03;;;19.67;44.56
72359;BME280;60317;48.880;-0.862;2023-04-23T06:42:28;98862.03;;;19.70;44.61
72359;BME280;60317;48.880;-0.862;2023-04-23T06:44:56;98848.44;;;19.71;44.67
72359;BME280;60317;48.880;-0.862;2023-04-23T06:47:22;98841.09;;;19.73;44.39
72359;BME280;60317;48.880;-0.862;2023-04-23T06:49:50;98837.38;;;19.74;44.40
72359;BME280;60317;48.880;-0.862;2023-04-23T06:52:16;98830.03;;;19.76;44.31
72359;BME280;60317;48.880;-0.862;2023-04-23T06:54:43;98822.97;;;19.75;44.39
72359;BME280;60317;48.880;-0.862;2023-04-23T06:57:10;98816.63;;;19.76;44.48
72359;BME280;60317;48.880;-0.862;2023-04-23T06:59:36;98806.38;;;19.72;44.53
72359;BME280;60317;48.880;-0.862;2023-04-23T07:02:03;98801.03;;;19.64;44.73
72359;BME280;60317;48.880;-0.862;2023-04-23T07:04:29;98799.88;;;19.66;44.54
72359;BME280;60317;48.880;-0.862;2023-04-23T07:06:58;98789.66;;;19.70;44.45
72359;BME280;60317;48.880;-0.862;2023-04-23T07:09:25;98777.91;;;19.71;44.40
72359;BME280;60317;48.880;-0.862;2023-04-23T07:11:52;98775.91;;;19.73;44.48
72359;BME280;60317;48.880;-0.862;2023-04-23T07:14:18;98765.19;;;19.73;44.50
72359;BME280;60317;48.880;-0.862;2023-04-23T07:16:45;98767.69;;;19.74;44.39
72359;BME280;60317;48.880;-0.862;2023-04-23T07:19:11;98762.34;;;19.74;44.43
72359;BME280;60317;48.880;-0.862;2023-04-23T07:21:38;98765.50;;;19.78;44.45
72359;BME280;60317;48.880;-0.862;2023-04-23T07:24:06;98752.09;;;19.78;44.43
72359;BME280;60317;48.880;-0.862;2023-04-23T07:26:33;98755.13;;;19.75;44.52
72359;BME280;60317;48.880;-0.862;2023-04-23T07:29:00;98750.13;;;19.64;44.72
72359;BME280;60317;48.880;-0.862;2023-04-23T07:31:27;98744.44;;;19.67;44.54
72359;BME280;60317;48.880;-0.862;2023-04-23T07:33:53;98744.09;;;19.70;44.50
72359;BME280;60317;48.880;-0.862;2023-04-23T07:36:20;98738.41;;;19.73;44.58
72359;BME280;60317;48.880;-0.862;2023-04-23T07:38:47;98738.88;;;19.76;44.44
72359;BME280;60317;48.880;-0.862;2023-04-23T07:41:14;98721.13;;;19.75;44.43
72359;BME280;60317;48.880;-0.862;2023-04-23T07:43:41;98725.66;;;19.75;44.75
72359;BME280;60317;48.880;-0.862;2023-04-23T07:46:08;98716.44;;;19.77;44.50
72359;BME280;60317;48.880;-0.862;2023-04-23T07:48:35;98713.75;;;19.77;44.49
72359;BME280;60317;48.880;-0.862;2023-04-23T07:51:01;98717.06;;;19.79;44.42
72359;BME280;60317;48.880;-0.862;2023-04-23T07:53:28;98713.09;;;19.67;44.58
72359;BME280;60317;48.880;-0.862;2023-04-23T07:55:54;98706.06;;;19.66;44.52
72359;BME280;60317;48.880;-0.862;2023-04-23T07:58:23;98704.72;;;19.70;44.54
72359;BME280;60317;48.880;-0.862;2023-04-23T08:00:50;98702.03;;;19.70;44.50
72359;BME280;60317;48.880;-0.862;2023-04-23T08:03:18;98703.38;;;19.74;44.38
72359;BME280;60317;48.880;-0.862;2023-04-23T08:05:45;98702.53;;;19.74;44.55
72359;BME280;60317;48.880;-0.862;2023-04-23T08:08:12;98693.47;;;19.75;44.51
72359;BME280;60317;48.880;-0.862;2023-04-23T08:10:39;98697.66;;;19.77;44.43
72359;BME280;60317;48.880;-0.862;2023-04-23T08:13:05;98692.31;;;19.77;44.30
72359;BME280;60317;48.880;-0.862;2023-04-23T08:15:34;98691.47;;;19.77;44.48
72359;BME280;60317;48.880;-0.862;2023-04-23T08:18:01;98690.28;;;19.79;44.41
72359;BME280;60317;48.880;-0.862;2023-04-23T08:20:28;98692.16;;;19.71;44.63
72359;BME280;60317;48.880;-0.862;2023-04-23T08:22:54;98685.81;;;19.64;44.67
72359;BME280;60317;48.880;-0.862;2023-04-23T08:25:21;98688.28;;;19.65;44.70
72359;BME280;60317;48.880;-0.862;2023-04-23T08:27:47;98685.97;;;19.70;44.61
72359;BME280;60317;48.880;-0.862;2023-04-23T08:30:14;98675.06;;;19.72;44.48
72359;BME280;60317;48.880;-0.862;2023-04-23T08:32:42;98683.94;;;19.72;44.54
72359;BME280;60317;48.880;-0.862;2023-04-23T08:35:08;98684.78;;;19.73;44.57
72359;BME280;60317;48.880;-0.862;2023-04-23T08:37:35;98682.75;;;19.75;44.64
72359;BME280;60317;48.880;-0.862;2023-04-23T08:40:02;98677.41;;;19.75;44.54
72359;BME280;60317;48.880;-0.862;2023-04-23T08:42:36;98688.78;;;19.77;44.51
72359;BME280;60317;48.880;-0.862;2023-04-23T08:45:04;98693.81;;;19.80;44.56
72359;BME280;60317;48.880;-0.862;2023-04-23T08:47:31;98705.53;;;19.87;44.52
72359;BME280;60317;48.880;-0.862;2023-04-23T08:49:59;98692.94;;;19.79;44.84
72359;BME280;60317;48.880;-0.862;2023-04-23T08:52:32;98703.03;;;19.77;44.70
72359;BME280;60317;48.880;-0.862;2023-04-23T08:55:00;98700.50;;;19.84;44.48
72359;BME280;60317;48.880;-0.862;2023-04-23T08:57:27;98703.47;;;19.89;44.78
72359;BME280;60317;48.880;-0.862;2023-04-23T08:59:54;98704.16;;;19.91;44.47
72359;BME280;60317;48.880;-0.862;2023-04-23T09:02:21;98703.00;;;19.86;44.70
72359;BME280;60317;48.880;-0.862;2023-04-23T09:04:48;98702.13;;;19.93;44.54
72359;BME280;60317;48.880;-0.862;2023-04-23T09:07:19;98707.38;;;19.87;44.83
72359;BME280;60317;48.880;-0.862;2023-04-23T09:09:45;98708.53;;;19.84;44.82
72359;BME280;60317;48.880;-0.862;2023-04-23T09:12:12;98713.91;;;19.84;44.84
72359;BME280;60317;48.880;-0.862;2023-04-23T09:14:39;98707.03;;;19.82;44.86
72359;BME280;60317;48.880;-0.862;2023-04-23T09:17:05;98710.91;;;19.71;45.08
72359;BME280;60317;48.880;-0.862;2023-04-23T09:19:32;98723.31;;;19.64;45.29
72359;BME280;60317;48.880;-0.862;2023-04-23T09:21:58;98722.31;;;19.73;45.20
72359;BME280;60317;48.880;-0.862;2023-04-23T09:24:27;98730.69;;;19.70;45.01
72359;BME280;60317;48.880;-0.862;2023-04-23T09:26:53;98733.03;;;19.65;45.20
72359;BME280;60317;48.880;-0.862;2023-04-23T09:29:21;98739.22;;;19.73;45.03
72359;BME280;60317;48.880;-0.862;2023-04-23T09:31:49;98749.28;;;19.71;45.27
72359;BME280;60317;48.880;-0.862;2023-04-23T09:34:16;98753.31;;;19.67;45.28
72359;BME280;60317;48.880;-0.862;2023-04-23T09:36:43;98764.22;;;19.66;45.21
72359;BME280;60317;48.880;-0.862;2023-04-23T09:39:11;98765.88;;;19.67;45.20
72359;BME280;60317;48.880;-0.862;2023-04-23T09:41:39;98765.88;;;19.67;45.35
72359;BME280;60317;48.880;-0.862;2023-04-23T09:44:06;98768.88;;;19.64;45.27
72359;BME280;60317;48.880;-0.862;2023-04-23T09:46:34;98781.25;;;19.57;45.65
72359;BME280;60317;48.880;-0.862;2023-04-23T09:49:02;98773.53;;;19.62;45.40
72359;BME280;60317;48.880;-0.862;2023-04-23T09:51:29;98792.28;;;19.62;45.45
72359;BME280;60317;48.880;-0.862;2023-04-23T09:53:56;98796.00;;;19.61;45.49
72359;BME280;60317;48.880;-0.862;2023-04-23T09:56:23;98796.38;;;19.66;45.73
72359;BME280;60317;48.880;-0.862;2023-04-23T09:58:51;98806.41;;;19.64;45.40
72359;BME280;60317;48.880;-0.862;2023-04-23T10:01:18;98815.28;;;19.64;45.46
72359;BME280;60317;48.880;-0.862;2023-04-23T10:03:52;98827.84;;;19.64;45.44
72359;BME280;60317;48.880;-0.862;2023-04-23T10:06:26;98845.59;;;19.65;45.65
72359;BME280;60317;48.880;-0.862;2023-04-23T10:08:56;98843.75;;;19.65;45.45
72359;BME280;60317;48.880;-0.862;2023-04-23T10:11:24;98852.66;;;19.66;45.55
72359;BME280;60317;48.880;-0.862;2023-04-23T10:13:52;98852.59;;;19.58;45.70
72359;BME280;60317;48.880;-0.862;2023-04-23T10:16:20;98861.31;;;19.60;45.77
72359;BME280;60317;48.880;-0.862;2023-04-23T10:18:53;98862.50;;;19.65;45.40
72359;BME280;60317;48.880;-0.862;2023-04-23T10:21:24;98873.41;;;19.64;45.37
72359;BME280;60317;48.880;-0.862;2023-04-23T10:23:51;98875.06;;;19.65;45.70
72359;BME280;60317;48.880;-0.862;2023-04-23T10:26:19;98879.59;;;19.72;45.45
72359;BME280;60317;48.880;-0.862;2023-04-23T10:28:49;98888.34;;;19.66;45.66
72359;BME280;60317;48.880;-0.862;2023-04-23T10:31:20;98886.47;;;19.67;45.68
72359;BME280;60317;48.880;-0.862;2023-04-23T10:33:48;98890.00;;;19.75;45.32
72359;BME280;60317;48.880;-0.862;2023-04-23T10:36:25;98891.50;;;19.78;45.37
72359;BME280;60317;48.880;-0.862;2023-04-23T10:38:52;98896.19;;;19.68;45.51
72359;BME280;60317;48.880;-0.862;2023-04-23T10:41:28;98910.09;;;19.63;45.74
72359;BME280;60317;48.880;-0.862;2023-04-23T10:43:57;98910.91;;;19.55;45.85
72359;BME280;60317;48.880;-0.862;2023-04-23T10:46:28;98912.56;;;19.57;45.70
72359;BME280;60317;48.880;-0.862;2023-04-23T10:49:05;98918.63;;;19.59;45.56
72359;BME280;60317;48.880;-0.862;2023-04-23T10:51:32;98918.66;;;19.67;45.63
72359;BME280;60317;48.880;-0.862;2023-04-23T10:54:19;98919.13;;;19.62;45.72
72359;BME280;60317;48.880;-0.862;2023-04-23T10:56:57;98926.84;;;19.65;45.80
72359;BME280;60317;48.880;-0.862;2023-04-23T10:59:24;98931.66;;;19.62;45.91
72359;BME280;60317;48.880;-0.862;2023-04-23T11:01:52;98927.31;;;19.61;45.80
72359;BME280;60317;48.880;-0.862;2023-04-23T11:04:19;98930.72;;;19.63;45.91
72359;BME280;60317;48.880;-0.862;2023-04-23T11:06:52;98933.22;;;19.64;45.83
72359;BME280;60317;48.880;-0.862;2023-04-23T11:09:31;98933.22;;;19.64;45.76
72359;BME280;60317;48.880;-0.862;2023-04-23T11:11:58;98940.69;;;19.52;45.94
72359;BME280;60317;48.880;-0.862;2023-04-23T11:14:32;98943.38;;;19.52;45.91
72359;BME280;60317;48.880;-0.862;2023-04-23T11:17:00;98936.34;;;19.60;45.81
72359;BME280;60317;48.880;-0.862;2023-04-23T11:19:27;98945.91;;;19.62;45.89
72359;BME280;60317;48.880;-0.862;2023-04-23T11:21:55;98947.91;;;19.60;45.88
72359;BME280;60317;48.880;-0.862;2023-04-23T11:24:22;98950.31;;;19.63;45.73
72359;BME280;60317;48.880;-0.862;2023-04-23T11:26:50;98952.66;;;19.66;45.85
72359;BME280;60317;48.880;-0.862;2023-04-23T11:29:20;98954.31;;;19.67;45.84
72359;BME280;60317;48.880;-0.862;2023-04-23T11:31:47;98951.81;;;19.66;45.83
72359;BME280;60317;48.880;-0.862;2023-04-23T11:34:29;98956.16;;;19.67;45.68
72359;BME280;60317;48.880;-0.862;2023-04-23T11:36:57;98956.16;;;19.67;45.61
72359;BME280;60317;48.880;-0.862;2023-04-23T11:39:24;98960.53;;;19.68;45.61
72359;BME280;60317;48.880;-0.862;2023-04-23T11:41:51;98956.28;;;19.57;45.89
72359;BME280;60317;48.880;-0.862;2023-04-23T11:44:20;98969.53;;;19.59;45.75
72359;BME280;60317;48.880;-0.862;2023-04-23T11:46:47;98971.75;;;19.63;45.66
72359;BME280;60317;48.880;-0.862;2023-04-23T11:49:14;98971.09;;;19.69;45.56
72359;BME280;60317;48.880;-0.862;2023-04-23T11:51:43;98979.97;;;19.70;45.60
72359;BME280;60317;48.880;-0.862;2023-04-23T11:54:10;98978.97;;;19.71;45.75
72359;BME280;60317;48.880;-0.862;2023-04-23T11:56:37;98983.63;;;19.69;45.69
72359;BME280;60317;48.880;-0.862;2023-04-23T11:59:04;98980.13;;;19.68;45.58
72359;BME280;60317;48.880;-0.862;2023-04-23T12:01:41;98974.75;;;19.68;45.58
72359;BME280;60317;48.880;-0.862;2023-04-23T12:04:09;98970.09;;;19.70;45.67
72359;BME280;60317;48.880;-0.862;2023-04-23T12:06:36;98972.09;;;19.76;45.58
72359;BME280;60317;48.880;-0.862;2023-04-23T12:09:04;98979.97;;;19.70;45.50
72359;BME280;60317;48.880;-0.862;2023-04-23T12:11:31;98978.22;;;19.61;45.81
72359;BME280;60317;48.880;-0.862;2023-04-23T12:13:59;98980.63;;;19.64;45.73
72359;BME280;60317;48.880;-0.862;2023-04-23T12:16:33;98979.28;;;19.68;45.59
72359;BME280;60317;48.880;-0.862;2023-04-23T12:19:00;98982.16;;;19.74;45.71
72359;BME280;60317;48.880;-0.862;2023-04-23T12:21:26;98982.84;;;19.85;45.56
72359;BME280;60317;48.880;-0.862;2023-04-23T12:23:53;98984.66;;;19.76;45.67
72359;BME280;60317;48.880;-0.862;2023-04-23T12:26:21;98978.63;;;19.74;45.78
72359;BME280;60317;48.880;-0.862;2023-04-23T12:28:49;98975.44;;;19.70;45.88
72359;BME280;60317;48.880;-0.862;2023-04-23T12:31:18;98986.16;;;19.70;45.76
72359;BME280;60317;48.880;-0.862;2023-04-23T12:33:45;98988.53;;;19.82;45.63
72359;BME280;60317;48.880;-0.862;2023-04-23T12:36:14;98985.34;;;19.78;45.49
72359;BME280;60317;48.880;-0.862;2023-04-23T12:38:40;99000.22;;;19.72;45.99
72359;BME280;60317;48.880;-0.862;2023-04-23T12:41:07;98998.53;;;19.63;46.08
72359;BME280;60317;48.880;-0.862;2023-04-23T12:43:35;99004.75;;;19.64;45.87
72359;BME280;60317;48.880;-0.862;2023-04-23T12:46:01;99009.78;;;19.67;45.91
72359;BME280;60317;48.880;-0.862;2023-04-23T12:48:28;99024.91;;;19.84;45.67
72359;BME280;60317;48.880;-0.862;2023-04-23T12:50:54;99022.41;;;19.91;45.20